Beaverton, OR (97006)

9:37 PM PST on December 04, 2016 (GMT -0800)
Heritage Village | | Change Station
Active Advisory: Winter Weather Advisory

Elev 171 ft 45.52 °N, 122.86 °W | Updated 8 seconds ago

Partly Cloudy
Partly Cloudy
35.4 °F
Feels Like 35 °F
N
0.0
Wind Variable Wind from East

Today
High -- | Low -- °F
--% Chance of Precip.
Yesterday
High -- | Low -- °F
Precip. -- in
Pressure 30.22 in
Visibility 10.0 miles
Clouds Few 3000 ft
Windchill 35 °F
Dew Point 34 °F
Humidity 95%
Rainfall 0.56 in
Snow Depth Not available.
7:35 AM 4:28 PM
Waxing Crescent, 28% visible
METAR KHIO 050453Z 13003KT 10SM FEW030 02/01 A3021 RMK AO2 RAB02E20 SLP232 P0001 T00170006
Pressure 30.22 in
Visibility 10.0 miles
Clouds Few 3000 ft
Windchill 35 °F
Dew Point 34 °F
Humidity 95%
Rainfall 0.56 in
Snow Depth Not available.
7:35 AM 4:28 PM
Waxing Crescent, 28% visible
METAR KHIO 050453Z 13003KT 10SM FEW030 02/01 A3021 RMK AO2 RAB02E20 SLP232 P0001 T00170006

10-Day Weather Forecast

Almanac

Astronomy

Dec. 04, 2016 Rise Set
Actual Time
Civil Twilight
Nautical Twilight
Astronomical Twilight
Moon
Length of Visible Light
Length of Day
Tomorrow will be .
, % of the Moon is Illuminated

Today's Extremes

State Highs State Lows

Community

WunderPhotos

Upload Photos

1,955,765 photos uploaded!

WunderBlog® & News

Nearby

Air Quality

  Air Quality AQ Index Pollutant
Not available.

Snow Depth

Station Depth Elevation

Earthquake Activity

City Distance Mag. Time & Date
Minimum magnitude displayed is 2.5.

Coastal Water Temperatures

Place Temperature

Stations

Nearby Weather Stations

Station Location Temp. Windchill Dew Point Humidity Wind Precip. Elev Updated Type
                   

Watches & Warnings

Winter Weather Advisory
Issued: 8:02 PM PST Dec. 4, 2016 – National Weather Service

... Winter Weather Advisory remains in effect from 4 am to 1 PM
PST Monday for the greater Portland and Vancouver
Metro areas...

A Winter Weather Advisory for snow remains in effect from 4 am to
1 PM PST Monday.

* Timing... a mix of rain and snow is expected after midnight
tonight becoming mostly snow around 4 am Monday. Heaviest snow between
6am and 11 am Monday.

* Snow levels... lowering to 500 feet tonight... and to the valley
floor early Monday morning.

* Accumulation... 1 to 3 inches above 500 feet... with a trace to
less than an inch below 500 feet.

* Impacts... the best chance for persistent snow will occur during
the morning commute. There is uncertainty whether snow will
stick to Road surfaces, but even falling snow may result in
travel delays or accidents. If you must drive during this time,
provide extra time for travel and maintain space between
vehicles.

Precautionary/preparedness actions...

A Winter Weather Advisory for snow means that periods of snow
will cause primarily travel difficulties. Be prepared for snow
covered roads and limited visibilities... and use caution while
driving.